KTW weather

Katowice International Airport
Katowice, Silesia, Poland

Public forecast

Using degrees Celsius for public forecast. Weather courtesy of forecast.io.

METAR (pilot weather report)

Retrieved 2019/04/20 19:30 UTC (20 minutes ago):

EPKT 201930Z 35002KT CAVOK 09/M03 Q1026

TAF (pilot weather forecast)

Retrieved 2019/04/20 18:37 UTC (1 hour ago):

TAF EPKT 201730Z 2018/2118 34012KT CAVOK BECMG 2019/2022 34002KT BECMG 2107/2110 34012KT